Time;durP1;ratioP1;P1;durP2;ratioP2;P2;SDS_P1;SDS_P2;PMS_P1;PMS_P2;Temp;Humidity;BMP_temperature;BMP_pressure;BME280_temperature;BME280_humidity;BME280_pressure;Samples;Min_cycle;Max_cycle;Signal;HPM_P1;HPM_P2
2022/10/13 00:00:12;;;;;;;21.53;14.70;;;10.70;99.90;;;;;;2606889;54;20130;-74
2022/10/13 00:12:14;;;;;;;18.43;13.07;;;10.90;99.90;;;;;;2608457;54;20369;-73
2022/10/13 00:18:03;;;;;;;24.70;15.03;;;10.90;99.90;;;;;;2610051;54;20158;-74
2022/10/13 00:23:52;;;;;;;19.70;14.20;;;11.00;99.90;;;;;;2609499;54;20411;-74
2022/10/13 00:29:40;;;;;;;24.80;15.10;;;11.10;99.90;;;;;;2609645;39;20785;-75
2022/10/13 00:35:27;;;;;;;21.30;14.80;;;11.10;99.90;;;;;;2609492;54;20146;-74
2022/10/13 00:41:16;;;;;;;23.17;15.20;;;11.00;99.90;;;;;;2609443;54;20123;-73
2022/10/13 00:50:45;;;;;;;14.20;12.80;;;10.90;99.90;;;;;;2608985;54;20419;-73
2022/10/13 00:56:35;;;;;;;18.17;14.47;;;11.00;99.90;;;;;;2609394;54;20431;-73
2022/10/13 01:02:31;;;;;;;19.30;13.63;;;10.80;99.90;;;;;;2609588;54;20538;-75
2022/10/13 01:08:20;;;;;;;18.80;13.73;;;11.00;99.90;;;;;;2609733;54;20438;-75
2022/10/13 01:20:52;;;;;;;17.90;13.07;;;10.90;99.90;;;;;;2609289;39;21030;-74
2022/10/13 01:33:20;;;;;;;20.43;13.20;;;10.90;99.90;;;;;;2607996;54;20399;-74
2022/10/13 01:39:29;;;;;;;15.43;13.27;;;10.80;99.90;;;;;;2609300;54;20394;-74
2022/10/13 01:45:20;;;;;;;19.27;14.13;;;10.90;99.90;;;;;;2609493;46;20593;-74
2022/10/13 01:51:12;;;;;;;18.20;12.80;;;11.00;99.90;;;;;;2608815;54;20438;-73
2022/10/13 01:54:30;;;;;;;14.23;12.30;;;11.00;99.90;;;;;;2610226;39;20753;-75
2022/10/13 02:00:20;;;;;;;22.67;14.37;;;11.00;99.90;;;;;;2608315;54;20438;-75
2022/10/13 02:06:25;;;;;;;15.33;12.50;;;11.10;99.90;;;;;;2610098;39;20789;-74
2022/10/13 02:18:43;;;;;;;20.90;12.60;;;11.30;99.90;;;;;;2608643;54;20399;-74
2022/10/13 02:24:31;;;;;;;16.50;11.70;;;11.20;99.90;;;;;;2609014;54;20138;-74
2022/10/13 02:30:22;;;;;;;20.00;11.77;;;11.20;99.90;;;;;;2608491;54;20400;-72
2022/10/13 02:36:10;;;;;;;21.17;12.73;;;11.40;99.90;;;;;;2608247;54;20410;-73
2022/10/13 02:41:58;;;;;;;19.10;12.03;;;11.40;99.90;;;;;;2608591;54;20489;-73
2022/10/13 02:47:46;;;;;;;18.07;11.87;;;11.30;99.90;;;;;;2608787;54;20134;-73
2022/10/13 02:53:33;;;;;;;16.90;12.20;;;11.30;99.90;;;;;;2609280;54;20154;-73
2022/10/13 02:59:21;;;;;;;16.03;11.87;;;11.40;99.90;;;;;;2609454;39;20595;-75
2022/10/13 03:05:10;;;;;;;20.20;13.43;;;11.40;99.90;;;;;;2608788;54;20151;-73
2022/10/13 03:10:58;;;;;;;14.97;13.30;;;11.40;99.90;;;;;;2609420;54;20406;-74
2022/10/13 03:16:46;;;;;;;15.43;12.93;;;11.50;99.90;;;;;;2608839;54;20403;-74
2022/10/13 03:22:34;;;;;;;17.93;12.13;;;11.50;99.90;;;;;;2609284;54;20130;-75
2022/10/13 03:28:22;;;;;;;15.00;11.47;;;11.60;99.90;;;;;;2609588;54;20134;-74
2022/10/13 03:34:11;;;;;;;15.73;11.50;;;11.60;99.90;;;;;;2609672;54;20162;-74
2022/10/13 03:39:59;;;;;;;18.00;12.37;;;11.60;99.90;;;;;;2607427;54;20951;-73
2022/10/13 03:45:58;;;;;;;17.03;13.47;;;11.60;99.90;;;;;;2608449;54;20130;-74
2022/10/13 03:55:07;;;;;;;17.23;12.17;;;11.80;99.90;;;;;;2608792;39;20566;-73
2022/10/13 04:00:56;;;;;;;18.43;11.70;;;11.70;99.90;;;;;;2609409;54;20158;-74
2022/10/13 04:06:44;;;;;;;17.27;12.73;;;11.70;99.90;;;;;;2608598;54;20379;-74
2022/10/13 04:12:32;;;;;;;20.00;12.93;;;11.60;99.90;;;;;;2609241;54;20166;-74
2022/10/13 04:18:20;;;;;;;14.60;12.97;;;11.80;99.90;;;;;;2609804;54;20959;-73
2022/10/13 04:24:11;;;;;;;23.97;12.43;;;12.00;99.90;;;;;;2609953;54;20485;-75
2022/10/13 04:29:58;;;;;;;17.63;10.80;;;11.90;99.90;;;;;;2611560;54;20431;-74
2022/10/13 04:35:46;;;;;;;16.87;12.23;;;12.00;99.90;;;;;;2611592;54;20151;-74
2022/10/13 04:41:34;;;;;;;14.47;11.83;;;12.10;99.90;;;;;;2612091;54;20254;-73
2022/10/13 04:47:22;;;;;;;17.50;12.80;;;12.10;99.90;;;;;;2614995;54;20177;-77
2022/10/13 04:50:27;;;;;;;18.67;12.77;;;12.10;99.90;;;;;;2615286;39;20835;-73
2022/10/13 04:52:52;;;;;;;19.00;13.63;;;12.00;99.90;;;;;;2614494;54;20447;-74
2022/10/13 04:58:42;;;;;;;17.90;12.30;;;12.10;99.90;;;;;;2615222;39;20484;-74
2022/10/13 05:04:30;;;;;;;14.80;11.73;;;12.20;99.90;;;;;;2615291;54;20625;-74
2022/10/13 05:10:17;;;;;;;18.10;13.00;;;12.10;99.90;;;;;;2614928;54;20984;-73
2022/10/13 05:16:10;;;;;;;17.27;12.10;;;12.00;99.90;;;;;;2615297;54;20200;-74
2022/10/13 05:21:57;;;;;;;18.83;11.03;;;12.00;99.90;;;;;;2613139;54;20390;-75
2022/10/13 05:27:45;;;;;;;13.50;10.17;;;12.10;99.90;;;;;;2613937;39;20593;-73
2022/10/13 05:33:32;;;;;;;18.90;11.83;;;12.20;99.90;;;;;;2611461;54;20123;-73
2022/10/13 05:39:21;;;;;;;14.13;12.03;;;12.20;99.90;;;;;;2612733;46;20149;-73
2022/10/13 05:45:09;;;;;;;16.07;11.70;;;12.10;99.90;;;;;;2611215;54;20366;-74
2022/10/13 05:55:01;;;;;;;14.43;10.57;;;12.10;99.90;;;;;;2611037;39;20963;-75
2022/10/13 06:00:53;;;;;;;14.47;11.53;;;12.30;99.90;;;;;;2611859;54;20398;-74
2022/10/13 06:06:41;;;;;;;15.53;10.60;;;12.30;99.90;;;;;;2612220;54;20400;-73
2022/10/13 06:12:29;;;;;;;17.30;10.97;;;12.30;99.90;;;;;;2612123;54;20135;-73
2022/10/13 06:18:17;;;;;;;21.10;11.40;;;12.40;99.90;;;;;;2609427;54;20221;-73
2022/10/13 06:24:05;;;;;;;13.70;10.30;;;12.30;99.90;;;;;;2606818;54;20205;-74
2022/10/13 06:29:53;;;;;;;14.40;11.23;;;12.20;99.90;;;;;;2608864;54;20652;-73
2022/10/13 06:35:41;;;;;;;14.37;11.50;;;12.40;99.90;;;;;;2611742;54;20130;-73
2022/10/13 06:41:29;;;;;;;16.80;9.93;;;12.40;99.90;;;;;;2610056;54;20403;-72
2022/10/13 06:47:17;;;;;;;17.20;13.63;;;12.40;99.90;;;;;;2609771;54;20639;-75
2022/10/13 06:50:31;;;;;;;16.23;11.90;;;12.40;99.90;;;;;;2608495;54;20412;-74
2022/10/13 06:52:56;;;;;;;14.83;11.73;;;12.40;99.90;;;;;;2608934;54;20478;-74
2022/10/13 06:58:44;;;;;;;17.07;11.60;;;12.50;99.90;;;;;;2610809;54;20231;-74
2022/10/13 07:04:32;;;;;;;13.90;11.87;;;12.60;99.90;;;;;;2608471;54;20415;-72
2022/10/13 07:10:20;;;;;;;17.20;12.03;;;12.70;99.90;;;;;;2611502;54;20144;-75
2022/10/13 07:16:09;;;;;;;16.07;12.00;;;12.70;99.90;;;;;;2611637;54;20403;-73
2022/10/13 07:21:56;;;;;;;14.20;12.60;;;12.90;99.90;;;;;;2609673;54;20500;-73
2022/10/13 07:34:29;;;;;;;16.40;12.30;;;13.70;99.90;;;;;;2610899;54;21552;-74
2022/10/13 09:24:17;;;;;;;13.90;12.60;;;16.60;99.90;;;;;;2612017;54;20442;-74
2022/10/13 09:30:27;;;;;;;14.63;13.07;;;17.20;99.90;;;;;;2613599;31;20868;-74
2022/10/13 09:36:15;;;;;;;15.23;13.90;;;17.40;99.90;;;;;;2612176;54;20411;-73
2022/10/13 09:42:25;;;;;;;14.13;12.80;;;17.50;99.90;;;;;;2613181;54;20157;-74
2022/10/13 09:48:19;;;;;;;15.33;13.77;;;17.60;99.90;;;;;;2612585;54;22414;-74
2022/10/13 10:00:51;;;;;;;16.10;14.70;;;18.40;95.40;;;;;;2611630;54;20390;-75
2022/10/13 10:06:39;;;;;;;14.33;13.17;;;18.00;92.60;;;;;;2610037;54;20398;-74
2022/10/13 10:12:30;;;;;;;14.77;13.43;;;17.90;99.00;;;;;;2609172;54;20400;-74
2022/10/13 10:18:45;;;;;;;15.30;13.83;;;18.40;92.50;;;;;;2606775;54;20418;-73
2022/10/13 10:27:34;;;;;;;14.10;12.70;;;18.40;90.20;;;;;;2610249;54;20423;-74
2022/10/13 10:44:17;;;;;;;14.97;13.67;;;18.90;61.70;;;;;;2606365;54;20415;-78
2022/10/13 10:50:06;;;;;;;14.37;13.00;;;19.60;65.10;;;;;;2609532;54;20450;-74
2022/10/13 10:55:58;;;;;;;13.60;12.40;;;19.40;68.90;;;;;;2610437;46;20403;-75
2022/10/13 11:01:50;;;;;;;13.87;12.87;;;19.90;52.10;;;;;;2610137;54;20445;-75
2022/10/13 11:07:37;;;;;;;17.00;15.17;;;19.40;57.40;;;;;;2609780;54;20403;-75
2022/10/13 11:13:25;;;;;;;15.80;12.93;;;19.60;57.90;;;;;;2610500;54;20267;-73
2022/10/13 11:19:28;;;;;;;14.03;13.00;;;19.70;52.20;;;;;;2612396;54;20798;-75
2022/10/13 11:25:34;;;;;;;14.97;13.47;;;18.90;71.20;;;;;;2610753;39;20829;-74
2022/10/13 11:37:56;;;;;;;19.10;12.27;;;18.40;67.40;;;;;;2611251;54;20912;-74
2022/10/13 12:01:18;;;;;;;15.43;13.93;;;17.70;90.40;;;;;;2609458;54;20407;-73
2022/10/13 12:07:11;;;;;;;15.37;13.80;;;17.20;94.10;;;;;;2608291;54;20395;-72
2022/10/13 12:13:00;;;;;;;13.97;12.87;;;17.20;97.30;;;;;;2610641;54;20383;-75
2022/10/13 12:18:48;;;;;;;13.27;12.07;;;17.00;99.90;;;;;;2609243;54;20399;-74
2022/10/13 12:28:04;;;;;;;13.03;11.93;;;16.80;99.90;;;;;;2609726;54;20439;-74
2022/10/13 12:33:56;;;;;;;13.70;12.60;;;16.60;99.90;;;;;;2609370;54;20395;-74
2022/10/13 12:39:45;;;;;;;14.37;12.67;;;16.60;99.90;;;;;;2610718;54;20991;-73
2022/10/13 12:45:34;;;;;;;18.07;12.60;;;16.50;99.90;;;;;;2611228;54;20395;-74
2022/10/13 12:51:26;;;;;;;13.60;11.30;;;16.10;99.90;;;;;;2611757;54;21229;-74
2022/10/13 13:03:40;;;;;;;14.90;10.80;;;15.40;99.90;;;;;;2611481;54;20399;-74
2022/10/13 13:09:29;;;;;;;15.00;9.50;;;15.50;99.90;;;;;;2609066;54;20411;-74
2022/10/13 13:21:54;;;;;;;14.47;13.10;;;15.40;99.90;;;;;;2611990;54;20409;-74
2022/10/13 13:27:42;;;;;;;13.57;12.27;;;15.60;99.90;;;;;;2611170;54;20239;-73
2022/10/13 13:33:29;;;;;;;14.00;12.80;;;15.80;99.90;;;;;;2609862;54;20642;-72
2022/10/13 13:39:17;;;;;;;13.33;12.13;;;15.60;99.90;;;;;;2609881;54;20174;-74
2022/10/13 13:45:05;;;;;;;14.40;13.10;;;15.50;99.90;;;;;;2611472;54;20173;-74
2022/10/13 13:50:53;;;;;;;18.60;11.53;;;15.60;99.90;;;;;;2610680;54;20423;-74
2022/10/13 13:56:41;;;;;;;29.20;12.77;;;15.60;99.90;;;;;;2610825;54;20138;-73
2022/10/13 14:02:31;;;;;;;11.53;10.53;;;15.60;99.90;;;;;;2610234;54;20282;-74
2022/10/13 14:08:19;;;;;;;11.07;10.10;;;15.70;99.90;;;;;;2610623;54;20395;-73
2022/10/13 14:14:07;;;;;;;10.90;9.80;;;15.60;99.90;;;;;;2610906;54;20134;-74
2022/10/13 14:19:54;;;;;;;15.57;10.83;;;15.70;99.90;;;;;;2610571;54;20138;-74
2022/10/13 14:25:42;;;;;;;12.20;11.20;;;15.60;99.90;;;;;;2610309;54;20229;-74
2022/10/13 14:31:31;;;;;;;12.33;11.10;;;15.40;99.90;;;;;;2612097;54;20170;-74
2022/10/13 14:37:21;;;;;;;11.43;9.83;;;15.40;99.90;;;;;;2610012;54;20400;-73
2022/10/13 14:43:09;;;;;;;10.63;9.57;;;15.20;99.90;;;;;;2610186;54;20578;-73
2022/10/13 14:48:57;;;;;;;16.23;11.37;;;15.10;99.90;;;;;;2610461;54;20383;-74
2022/10/13 14:54:46;;;;;;;17.10;10.90;;;15.00;99.90;;;;;;2611849;31;20835;-73
2022/10/13 15:00:34;;;;;;;11.97;10.00;;;14.90;99.90;;;;;;2609851;54;20429;-73
2022/10/13 15:06:23;;;;;;;13.80;10.10;;;14.80;99.90;;;;;;2609819;54;20960;-73
2022/10/13 15:12:11;;;;;;;15.07;10.30;;;14.80;99.90;;;;;;2608951;39;21055;-73
2022/10/13 15:17:59;;;;;;;12.60;11.30;;;14.70;99.90;;;;;;2610577;54;20130;-72
2022/10/13 15:28:01;;;;;;;16.43;11.47;;;14.70;99.90;;;;;;2609287;54;20447;-73
2022/10/13 15:33:52;;;;;;;14.30;12.13;;;14.70;99.90;;;;;;2610512;54;20407;-73
2022/10/13 15:39:40;;;;;;;17.40;15.10;;;14.70;99.90;;;;;;2612568;46;20500;-72
2022/10/13 15:45:27;;;;;;;18.67;13.83;;;14.70;99.90;;;;;;2612975;54;20210;-72
2022/10/13 15:51:18;;;;;;;17.03;15.33;;;14.60;99.90;;;;;;2611545;54;20122;-72
2022/10/13 15:57:05;;;;;;;17.03;14.70;;;14.60;99.90;;;;;;2612618;54;20506;-73
2022/10/13 16:02:53;;;;;;;18.50;14.43;;;14.70;99.90;;;;;;2607272;54;20166;-73
2022/10/13 16:08:44;;;;;;;18.90;16.57;;;14.70;99.90;;;;;;2609012;54;20153;-73
2022/10/13 16:14:32;;;;;;;18.50;15.63;;;14.60;99.90;;;;;;2612408;54;20586;-72
2022/10/13 16:20:19;;;;;;;18.03;15.63;;;14.60;99.90;;;;;;2611808;54;20154;-73
2022/10/13 16:23:30;;;;;;;24.40;16.50;;;14.60;99.90;;;;;;2609458;54;20435;-72
2022/10/13 16:25:56;;;;;;;24.33;17.00;;;14.50;99.90;;;;;;2611832;54;20154;-73
2022/10/13 16:31:44;;;;;;;20.77;15.53;;;14.50;99.90;;;;;;2612872;39;20495;-73
2022/10/13 16:37:32;;;;;;;19.30;15.80;;;14.40;99.90;;;;;;2609341;54;20395;-73
2022/10/13 16:43:20;;;;;;;21.37;15.30;;;14.50;99.90;;;;;;2612711;54;20411;-73
2022/10/13 16:49:08;;;;;;;20.80;15.30;;;14.40;99.90;;;;;;2610193;54;20258;-74
2022/10/13 16:54:56;;;;;;;15.87;14.17;;;14.30;99.90;;;;;;2610632;54;20395;-73
2022/10/13 17:00:44;;;;;;;19.57;15.40;;;14.30;99.90;;;;;;2612615;54;20173;-74
2022/10/13 17:06:32;;;;;;;18.60;14.47;;;14.40;99.90;;;;;;2611147;54;20138;-73
2022/10/13 17:12:20;;;;;;;18.70;14.90;;;14.30;99.90;;;;;;2609099;54;20951;-73
2022/10/13 17:18:08;;;;;;;21.07;14.90;;;14.30;99.90;;;;;;2611183;54;20150;-72
2022/10/13 17:28:01;;;;;;;20.03;12.67;;;14.10;99.90;;;;;;2612658;54;20438;-75
2022/10/13 17:33:50;;;;;;;19.47;12.63;;;13.90;99.90;;;;;;2610716;54;20398;-71
2022/10/13 17:39:38;;;;;;;18.97;14.17;;;13.70;99.90;;;;;;2612525;39;20470;-72
2022/10/13 17:45:26;;;;;;;14.70;12.17;;;13.60;99.90;;;;;;2611433;54;20463;-72
2022/10/13 17:51:17;;;;;;;15.80;11.37;;;13.60;99.90;;;;;;2610044;54;20944;-74
2022/10/13 17:57:04;;;;;;;17.13;13.27;;;13.50;99.90;;;;;;2611340;54;21061;-72
2022/10/13 18:02:52;;;;;;;18.87;12.50;;;13.50;99.90;;;;;;2610720;54;20151;-73
2022/10/13 18:08:39;;;;;;;18.07;12.90;;;13.50;99.90;;;;;;2610705;54;20243;-71
2022/10/13 18:14:27;;;;;;;19.70;12.80;;;13.60;99.90;;;;;;2609961;54;20122;-72
2022/10/13 18:20:15;;;;;;;18.57;12.57;;;13.70;99.90;;;;;;2609930;54;20607;-72
2022/10/13 18:23:31;;;;;;;18.80;13.37;;;13.60;99.90;;;;;;2610774;54;20436;-72
2022/10/13 18:26:02;;;;;;;20.03;13.97;;;13.60;99.90;;;;;;2607943;47;20310;-72
2022/10/13 18:31:49;;;;;;;23.03;13.77;;;13.60;99.90;;;;;;2608309;54;20394;-72
2022/10/13 18:37:37;;;;;;;29.17;15.20;;;13.60;99.90;;;;;;2609806;39;20520;-71
2022/10/13 18:43:25;;;;;;;18.90;14.80;;;13.60;99.90;;;;;;2610679;54;20258;-72
2022/10/13 18:49:13;;;;;;;21.20;15.60;;;13.60;99.90;;;;;;2610713;39;20545;-71
2022/10/13 18:55:01;;;;;;;19.00;16.90;;;13.50;99.90;;;;;;2610528;39;20817;-72
2022/10/13 19:00:48;;;;;;;24.40;17.20;;;13.60;99.90;;;;;;2609408;54;20214;-72
2022/10/13 19:06:40;;;;;;;23.87;17.47;;;13.60;99.90;;;;;;2608239;39;20532;-73
2022/10/13 19:12:27;;;;;;;24.20;17.20;;;13.50;99.90;;;;;;2610402;54;20386;-71
2022/10/13 19:18:18;;;;;;;18.37;15.47;;;13.50;99.90;;;;;;2609343;54;20143;-73
2022/10/13 19:28:05;;;;;;;23.43;17.63;;;13.50;99.90;;;;;;2609353;54;20437;-71
2022/10/13 19:33:52;;;;;;;31.70;20.00;;;13.70;99.90;;;;;;2610438;54;20390;-73
2022/10/13 19:39:40;;;;;;;22.90;18.97;;;13.70;99.90;;;;;;2608216;54;20444;-72
2022/10/13 19:45:28;;;;;;;28.33;19.70;;;13.60;99.90;;;;;;2609736;46;20189;-71
2022/10/13 19:51:16;;;;;;;25.33;19.50;;;13.60;99.90;;;;;;2611079;54;20126;-71
2022/10/13 19:57:04;;;;;;;32.50;24.40;;;13.60;99.90;;;;;;2609361;54;20415;-73
2022/10/13 20:02:51;;;;;;;24.77;21.20;;;13.60;99.90;;;;;;2610589;54;20153;-72
2022/10/13 20:08:39;;;;;;;29.10;20.83;;;13.60;99.90;;;;;;2611106;54;20133;-72
2022/10/13 20:14:27;;;;;;;32.47;21.10;;;13.70;99.90;;;;;;2609404;54;20276;-72
2022/10/13 20:20:15;;;;;;;27.57;20.30;;;13.60;99.90;;;;;;2611656;54;20126;-71
2022/10/13 20:23:31;;;;;;;29.30;20.60;;;13.60;99.90;;;;;;2609574;54;20423;-71
2022/10/13 20:26:05;;;;;;;31.90;22.70;;;13.60;99.90;;;;;;2608945;47;20189;-72
2022/10/13 20:31:53;;;;;;;30.10;22.90;;;13.60;99.90;;;;;;2610293;54;20403;-71
2022/10/13 20:37:40;;;;;;;30.73;25.17;;;13.50;99.90;;;;;;2608635;54;20139;-72
2022/10/13 20:43:28;;;;;;;30.30;23.90;;;13.50;99.90;;;;;;2608806;54;20165;-71
2022/10/13 20:49:15;;;;;;;33.20;27.33;;;13.60;99.90;;;;;;2609055;54;20150;-72
2022/10/13 20:55:03;;;;;;;39.20;26.80;;;13.60;99.90;;;;;;2608345;54;20637;-73
2022/10/13 21:00:52;;;;;;;35.47;26.10;;;13.60;99.90;;;;;;2608583;54;20134;-72
2022/10/13 21:06:40;;;;;;;35.27;26.27;;;13.50;99.90;;;;;;2608565;54;20952;-71
2022/10/13 21:12:28;;;;;;;41.73;27.90;;;13.40;99.90;;;;;;2610056;54;20398;-71
2022/10/13 21:18:16;;;;;;;35.27;24.97;;;13.40;99.90;;;;;;2609871;54;20701;-70
2022/10/13 21:28:03;;;;;;;25.80;19.73;;;13.40;99.90;;;;;;2608865;54;20534;-72
2022/10/13 21:33:52;;;;;;;22.87;19.70;;;13.30;99.90;;;;;;2610078;39;20751;-72
2022/10/13 21:39:39;;;;;;;24.80;19.70;;;13.30;99.90;;;;;;2608903;54;20378;-72
2022/10/13 21:45:27;;;;;;;22.27;18.20;;;13.20;99.90;;;;;;2609203;54;20247;-71
2022/10/13 21:51:24;;;;;;;20.80;18.07;;;13.20;99.90;;;;;;2610579;54;20138;-71
2022/10/13 21:57:11;;;;;;;27.30;18.53;;;13.10;99.90;;;;;;2609566;39;20948;-72
2022/10/13 22:02:59;;;;;;;20.07;17.57;;;13.20;99.90;;;;;;2609221;54;20130;-71
2022/10/13 22:08:51;;;;;;;17.93;15.80;;;13.00;99.90;;;;;;2608057;54;20205;-72
2022/10/13 22:14:38;;;;;;;23.67;17.20;;;13.10;99.90;;;;;;2608613;54;22060;-72
2022/10/13 22:20:26;;;;;;;19.43;17.03;;;13.00;99.90;;;;;;2608969;54;20309;-71
2022/10/13 22:23:32;;;;;;;20.10;15.50;;;13.10;99.90;;;;;;2607201;54;22131;-72
2022/10/13 22:25:58;;;;;;;22.17;15.73;;;13.00;99.90;;;;;;2608713;54;20445;-71
2022/10/13 22:31:47;;;;;;;29.73;17.00;;;13.10;99.90;;;;;;2610840;39;20524;-72
2022/10/13 22:37:34;;;;;;;19.67;15.13;;;13.20;99.90;;;;;;2610912;54;20495;-73
2022/10/13 22:43:22;;;;;;;23.43;15.83;;;13.10;99.90;;;;;;2610002;54;20158;-73
2022/10/13 22:49:10;;;;;;;22.70;15.17;;;13.10;99.90;;;;;;2609554;39;20537;-71
2022/10/13 22:54:58;;;;;;;21.63;16.37;;;13.20;99.90;;;;;;2608498;54;20154;-72
2022/10/13 23:00:45;;;;;;;21.23;15.27;;;13.20;99.90;;;;;;2609812;54;20248;-72
2022/10/13 23:06:34;;;;;;;20.97;15.17;;;13.10;99.90;;;;;;2609345;54;20139;-73
2022/10/13 23:12:21;;;;;;;21.83;15.30;;;13.10;99.90;;;;;;2609409;54;20569;-71
2022/10/13 23:18:09;;;;;;;21.13;14.93;;;13.10;99.90;;;;;;2609416;54;20671;-73
2022/10/13 23:28:02;;;;;;;18.70;16.50;;;13.10;99.90;;;;;;2610496;54;20528;-72
2022/10/13 23:33:50;;;;;;;26.63;16.40;;;13.20;99.90;;;;;;2607880;54;20944;-71
2022/10/13 23:39:38;;;;;;;25.40;16.67;;;13.20;99.90;;;;;;2608334;54;20418;-72
2022/10/13 23:45:26;;;;;;;20.90;16.30;;;13.10;99.90;;;;;;2608766;54;20190;-71
2022/10/13 23:51:17;;;;;;;28.13;17.83;;;13.20;99.90;;;;;;2609875;54;20150;-72
2022/10/13 23:57:05;;;;;;;31.33;20.53;;;13.10;99.90;;;;;;2609320;54;20403;-72
